sensor_id;sensor_type;location;lat;lon;timestamp;P1;durP1;ratioP1;P2;durP2;ratioP2
40635;SDS011;26642;55.766;37.828;2023-06-10T00:01:42;3.35;;;3.05;;
40635;SDS011;26642;55.766;37.828;2023-06-10T00:04:13;7.88;;;3.55;;
40635;SDS011;26642;55.766;37.828;2023-06-10T00:06:40;3.45;;;3.00;;
40635;SDS011;26642;55.766;37.828;2023-06-10T00:09:06;4.30;;;3.15;;
40635;SDS011;26642;55.766;37.828;2023-06-10T00:11:36;3.92;;;3.50;;
40635;SDS011;26642;55.766;37.828;2023-06-10T00:14:03;5.05;;;3.22;;
40635;SDS011;26642;55.766;37.828;2023-06-10T00:16:29;3.08;;;2.78;;
40635;SDS011;26642;55.766;37.828;2023-06-10T00:18:55;3.45;;;2.72;;
40635;SDS011;26642;55.766;37.828;2023-06-10T00:21:26;5.35;;;3.00;;
40635;SDS011;26642;55.766;37.828;2023-06-10T00:24:03;3.65;;;3.13;;
40635;SDS011;26642;55.766;37.828;2023-06-10T00:26:30;5.75;;;2.90;;
40635;SDS011;26642;55.766;37.828;2023-06-10T00:28:57;4.03;;;3.00;;
40635;SDS011;26642;55.766;37.828;2023-06-10T00:31:23;4.32;;;2.90;;
40635;SDS011;26642;55.766;37.828;2023-06-10T00:33:51;3.28;;;2.95;;
40635;SDS011;26642;55.766;37.828;2023-06-10T00:36:17;3.40;;;2.88;;
40635;SDS011;26642;55.766;37.828;2023-06-10T00:38:43;6.13;;;2.63;;
40635;SDS011;26642;55.766;37.828;2023-06-10T00:41:09;3.20;;;2.72;;
40635;SDS011;26642;55.766;37.828;2023-06-10T00:43:35;2.92;;;2.60;;
40635;SDS011;26642;55.766;37.828;2023-06-10T00:46:01;2.80;;;2.60;;
40635;SDS011;26642;55.766;37.828;2023-06-10T00:48:28;4.00;;;3.10;;
40635;SDS011;26642;55.766;37.828;2023-06-10T00:50:56;3.78;;;3.28;;
40635;SDS011;26642;55.766;37.828;2023-06-10T00:53:23;3.78;;;2.85;;
40635;SDS011;26642;55.766;37.828;2023-06-10T00:55:50;3.00;;;2.65;;
40635;SDS011;26642;55.766;37.828;2023-06-10T00:58:16;4.15;;;2.90;;
40635;SDS011;26642;55.766;37.828;2023-06-10T01:00:42;3.67;;;2.63;;
40635;SDS011;26642;55.766;37.828;2023-06-10T01:03:10;3.38;;;3.00;;
40635;SDS011;26642;55.766;37.828;2023-06-10T01:05:39;4.03;;;3.03;;
40635;SDS011;26642;55.766;37.828;2023-06-10T01:08:18;3.13;;;2.83;;
40635;SDS011;26642;55.766;37.828;2023-06-10T01:10:55;4.38;;;2.80;;
40635;SDS011;26642;55.766;37.828;2023-06-10T01:13:24;3.40;;;2.92;;
40635;SDS011;26642;55.766;37.828;2023-06-10T01:15:57;4.55;;;3.08;;
40635;SDS011;26642;55.766;37.828;2023-06-10T01:18:29;3.72;;;3.35;;
40635;SDS011;26642;55.766;37.828;2023-06-10T01:20:57;3.30;;;3.00;;
40635;SDS011;26642;55.766;37.828;2023-06-10T01:23:23;3.92;;;3.42;;
40635;SDS011;26642;55.766;37.828;2023-06-10T01:25:51;3.58;;;2.88;;
40635;SDS011;26642;55.766;37.828;2023-06-10T01:33:29;4.60;;;3.08;;
40635;SDS011;26642;55.766;37.828;2023-06-10T01:35:59;2.90;;;2.38;;
40635;SDS011;26642;55.766;37.828;2023-06-10T01:38:26;4.05;;;2.70;;
40635;SDS011;26642;55.766;37.828;2023-06-10T01:40:53;2.72;;;2.40;;
40635;SDS011;26642;55.766;37.828;2023-06-10T01:43:21;3.22;;;2.70;;
40635;SDS011;26642;55.766;37.828;2023-06-10T01:45:47;5.45;;;2.75;;
40635;SDS011;26642;55.766;37.828;2023-06-10T01:48:13;2.85;;;2.55;;
40635;SDS011;26642;55.766;37.828;2023-06-10T01:50:39;2.63;;;2.38;;
40635;SDS011;26642;55.766;37.828;2023-06-10T01:53:05;4.80;;;2.83;;
40635;SDS011;26642;55.766;37.828;2023-06-10T01:55:31;3.83;;;2.25;;
40635;SDS011;26642;55.766;37.828;2023-06-10T01:57:57;3.65;;;2.30;;
40635;SDS011;26642;55.766;37.828;2023-06-10T02:00:23;4.47;;;2.53;;
40635;SDS011;26642;55.766;37.828;2023-06-10T02:02:49;3.50;;;2.20;;
40635;SDS011;26642;55.766;37.828;2023-06-10T02:05:15;2.65;;;2.25;;
40635;SDS011;26642;55.766;37.828;2023-06-10T02:07:41;2.10;;;1.90;;
40635;SDS011;26642;55.766;37.828;2023-06-10T02:10:07;2.50;;;2.30;;
40635;SDS011;26642;55.766;37.828;2023-06-10T02:12:33;2.97;;;2.13;;
40635;SDS011;26642;55.766;37.828;2023-06-10T02:14:59;2.97;;;1.88;;
40635;SDS011;26642;55.766;37.828;2023-06-10T02:17:25;5.78;;;2.20;;
40635;SDS011;26642;55.766;37.828;2023-06-10T02:19:52;5.20;;;2.30;;
40635;SDS011;26642;55.766;37.828;2023-06-10T02:22:21;2.28;;;2.03;;
40635;SDS011;26642;55.766;37.828;2023-06-10T02:24:48;3.13;;;2.20;;
40635;SDS011;26642;55.766;37.828;2023-06-10T02:27:15;3.53;;;2.15;;
40635;SDS011;26642;55.766;37.828;2023-06-10T02:29:41;3.78;;;2.20;;
40635;SDS011;26642;55.766;37.828;2023-06-10T02:32:09;2.15;;;1.92;;
40635;SDS011;26642;55.766;37.828;2023-06-10T02:34:35;4.80;;;2.00;;
40635;SDS011;26642;55.766;37.828;2023-06-10T02:37:03;2.05;;;1.85;;
40635;SDS011;26642;55.766;37.828;2023-06-10T02:39:30;3.10;;;2.35;;
40635;SDS011;26642;55.766;37.828;2023-06-10T02:41:56;2.22;;;1.95;;
40635;SDS011;26642;55.766;37.828;2023-06-10T02:44:22;2.80;;;1.98;;
40635;SDS011;26642;55.766;37.828;2023-06-10T02:46:49;3.08;;;1.85;;
40635;SDS011;26642;55.766;37.828;2023-06-10T02:49:16;1.88;;;1.70;;
40635;SDS011;26642;55.766;37.828;2023-06-10T02:51:43;2.58;;;1.85;;
40635;SDS011;26642;55.766;37.828;2023-06-10T02:54:09;3.67;;;2.10;;
40635;SDS011;26642;55.766;37.828;2023-06-10T02:56:35;1.70;;;1.58;;
40635;SDS011;26642;55.766;37.828;2023-06-10T02:59:04;2.28;;;1.80;;
40635;SDS011;26642;55.766;37.828;2023-06-10T03:01:32;1.88;;;1.60;;
40635;SDS011;26642;55.766;37.828;2023-06-10T03:04:05;2.72;;;1.70;;
40635;SDS011;26642;55.766;37.828;2023-06-10T03:06:33;3.92;;;1.63;;
40635;SDS011;26642;55.766;37.828;2023-06-10T03:09:09;2.40;;;1.60;;
40635;SDS011;26642;55.766;37.828;2023-06-10T03:11:37;1.23;;;1.13;;
40635;SDS011;26642;55.766;37.828;2023-06-10T03:14:03;2.72;;;1.55;;
40635;SDS011;26642;55.766;37.828;2023-06-10T03:16:31;2.78;;;1.45;;
40635;SDS011;26642;55.766;37.828;2023-06-10T03:18:57;2.60;;;1.38;;
40635;SDS011;26642;55.766;37.828;2023-06-10T03:21:23;3.03;;;1.52;;
40635;SDS011;26642;55.766;37.828;2023-06-10T03:23:50;3.40;;;1.67;;
40635;SDS011;26642;55.766;37.828;2023-06-10T03:26:16;1.88;;;1.27;;
40635;SDS011;26642;55.766;37.828;2023-06-10T03:28:45;1.20;;;1.10;;
40635;SDS011;26642;55.766;37.828;2023-06-10T03:31:11;2.13;;;1.10;;
40635;SDS011;26642;55.766;37.828;2023-06-10T03:33:37;2.55;;;1.27;;
40635;SDS011;26642;55.766;37.828;2023-06-10T03:36:04;3.55;;;0.98;;
40635;SDS011;26642;55.766;37.828;2023-06-10T03:38:31;1.27;;;1.17;;
40635;SDS011;26642;55.766;37.828;2023-06-10T03:40:57;2.28;;;1.00;;
40635;SDS011;26642;55.766;37.828;2023-06-10T03:43:23;1.75;;;0.90;;
40635;SDS011;26642;55.766;37.828;2023-06-10T03:45:50;2.58;;;1.08;;
40635;SDS011;26642;55.766;37.828;2023-06-10T03:48:17;3.45;;;0.82;;
40635;SDS011;26642;55.766;37.828;2023-06-10T03:50:48;1.65;;;1.10;;
40635;SDS011;26642;55.766;37.828;2023-06-10T03:53:16;1.85;;;1.15;;
40635;SDS011;26642;55.766;37.828;2023-06-10T03:55:43;1.60;;;1.00;;
40635;SDS011;26642;55.766;37.828;2023-06-10T03:58:10;1.75;;;1.00;;
40635;SDS011;26642;55.766;37.828;2023-06-10T04:00:39;2.10;;;1.08;;
40635;SDS011;26642;55.766;37.828;2023-06-10T04:03:09;1.33;;;1.00;;
40635;SDS011;26642;55.766;37.828;2023-06-10T04:05:42;1.63;;;1.13;;
40635;SDS011;26642;55.766;37.828;2023-06-10T04:08:09;1.70;;;0.90;;
40635;SDS011;26642;55.766;37.828;2023-06-10T04:10:35;2.42;;;0.98;;
40635;SDS011;26642;55.766;37.828;2023-06-10T04:13:01;1.55;;;1.00;;
40635;SDS011;26642;55.766;37.828;2023-06-10T04:15:34;3.45;;;0.75;;
40635;SDS011;26642;55.766;37.828;2023-06-10T04:18:04;1.95;;;0.90;;
40635;SDS011;26642;55.766;37.828;2023-06-10T04:20:31;1.60;;;0.90;;
40635;SDS011;26642;55.766;37.828;2023-06-10T04:22:57;1.00;;;0.90;;
40635;SDS011;26642;55.766;37.828;2023-06-10T04:25:25;0.90;;;0.90;;
40635;SDS011;26642;55.766;37.828;2023-06-10T04:27:51;1.52;;;0.60;;
40635;SDS011;26642;55.766;37.828;2023-06-10T04:30:17;1.58;;;0.70;;
40635;SDS011;26642;55.766;37.828;2023-06-10T04:32:44;0.93;;;0.77;;
40635;SDS011;26642;55.766;37.828;2023-06-10T04:35:15;0.80;;;0.80;;
40635;SDS011;26642;55.766;37.828;2023-06-10T04:37:42;2.20;;;0.77;;
40635;SDS011;26642;55.766;37.828;2023-06-10T04:40:09;2.00;;;0.90;;
40635;SDS011;26642;55.766;37.828;2023-06-10T04:42:36;4.88;;;0.80;;
40635;SDS011;26642;55.766;37.828;2023-06-10T04:45:02;1.42;;;0.90;;
40635;SDS011;26642;55.766;37.828;2023-06-10T04:47:31;0.90;;;0.85;;
40635;SDS011;26642;55.766;37.828;2023-06-10T04:49:59;1.15;;;0.82;;
40635;SDS011;26642;55.766;37.828;2023-06-10T04:52:25;1.00;;;0.90;;
40635;SDS011;26642;55.766;37.828;2023-06-10T04:54:52;0.82;;;0.82;;
40635;SDS011;26642;55.766;37.828;2023-06-10T04:57:19;1.13;;;0.95;;
40635;SDS011;26642;55.766;37.828;2023-06-10T04:59:46;2.78;;;0.85;;
40635;SDS011;26642;55.766;37.828;2023-06-10T05:02:12;2.13;;;1.10;;
40635;SDS011;26642;55.766;37.828;2023-06-10T05:04:38;1.17;;;0.95;;
40635;SDS011;26642;55.766;37.828;2023-06-10T05:07:04;1.02;;;0.82;;
40635;SDS011;26642;55.766;37.828;2023-06-10T05:09:30;2.38;;;0.90;;
40635;SDS011;26642;55.766;37.828;2023-06-10T05:11:57;2.70;;;0.90;;
40635;SDS011;26642;55.766;37.828;2023-06-10T05:14:25;0.95;;;0.82;;
40635;SDS011;26642;55.766;37.828;2023-06-10T05:16:51;3.03;;;1.08;;
40635;SDS011;26642;55.766;37.828;2023-06-10T05:19:16;0.98;;;0.93;;
40635;SDS011;26642;55.766;37.828;2023-06-10T05:21:44;1.67;;;0.80;;
40635;SDS011;26642;55.766;37.828;2023-06-10T05:24:10;2.13;;;1.05;;
40635;SDS011;26642;55.766;37.828;2023-06-10T05:26:36;0.70;;;0.70;;
40635;SDS011;26642;55.766;37.828;2023-06-10T05:29:03;2.10;;;0.80;;
40635;SDS011;26642;55.766;37.828;2023-06-10T05:31:30;0.90;;;0.80;;
40635;SDS011;26642;55.766;37.828;2023-06-10T05:33:56;1.52;;;0.70;;
40635;SDS011;26642;55.766;37.828;2023-06-10T05:36:22;1.40;;;0.80;;
40635;SDS011;26642;55.766;37.828;2023-06-10T05:38:50;1.35;;;0.80;;
40635;SDS011;26642;55.766;37.828;2023-06-10T05:41:16;2.55;;;1.00;;
40635;SDS011;26642;55.766;37.828;2023-06-10T05:43:42;2.08;;;0.80;;
40635;SDS011;26642;55.766;37.828;2023-06-10T05:46:08;3.67;;;0.82;;
40635;SDS011;26642;55.766;37.828;2023-06-10T05:48:34;0.55;;;0.55;;
40635;SDS011;26642;55.766;37.828;2023-06-10T05:51:00;0.60;;;0.60;;
40635;SDS011;26642;55.766;37.828;2023-06-10T05:53:26;2.70;;;0.90;;
40635;SDS011;26642;55.766;37.828;2023-06-10T05:55:52;1.55;;;0.73;;
40635;SDS011;26642;55.766;37.828;2023-06-10T05:58:22;5.20;;;0.93;;
40635;SDS011;26642;55.766;37.828;2023-06-10T06:00:49;1.00;;;0.75;;
40635;SDS011;26642;55.766;37.828;2023-06-10T06:03:15;1.17;;;0.75;;
40635;SDS011;26642;55.766;37.828;2023-06-10T06:05:42;2.75;;;1.02;;
40635;SDS011;26642;55.766;37.828;2023-06-10T06:08:09;5.18;;;0.70;;
40635;SDS011;26642;55.766;37.828;2023-06-10T06:10:35;1.42;;;0.77;;
40635;SDS011;26642;55.766;37.828;2023-06-10T06:13:01;0.60;;;0.60;;
40635;SDS011;26642;55.766;37.828;2023-06-10T06:15:27;0.85;;;0.60;;
40635;SDS011;26642;55.766;37.828;2023-06-10T06:17:53;0.98;;;0.70;;
40635;SDS011;26642;55.766;37.828;2023-06-10T06:20:21;2.63;;;0.70;;
40635;SDS011;26642;55.766;37.828;2023-06-10T06:22:48;3.10;;;0.63;;
40635;SDS011;26642;55.766;37.828;2023-06-10T06:25:14;1.75;;;0.90;;
40635;SDS011;26642;55.766;37.828;2023-06-10T06:27:40;2.17;;;0.60;;
40635;SDS011;26642;55.766;37.828;2023-06-10T06:30:06;1.15;;;0.60;;
40635;SDS011;26642;55.766;37.828;2023-06-10T06:32:33;1.05;;;0.60;;
40635;SDS011;26642;55.766;37.828;2023-06-10T06:34:59;1.10;;;0.80;;
40635;SDS011;26642;55.766;37.828;2023-06-10T06:37:25;1.15;;;0.75;;
40635;SDS011;26642;55.766;37.828;2023-06-10T06:40:03;0.60;;;0.60;;
40635;SDS011;26642;55.766;37.828;2023-06-10T06:42:29;2.08;;;0.88;;
40635;SDS011;26642;55.766;37.828;2023-06-10T06:45:10;0.50;;;0.50;;
40635;SDS011;26642;55.766;37.828;2023-06-10T06:47:37;0.82;;;0.60;;
40635;SDS011;26642;55.766;37.828;2023-06-10T06:50:03;3.05;;;0.50;;
40635;SDS011;26642;55.766;37.828;2023-06-10T06:52:29;1.88;;;0.50;;
40635;SDS011;26642;55.766;37.828;2023-06-10T06:54:55;0.65;;;0.65;;
40635;SDS011;26642;55.766;37.828;2023-06-10T06:57:21;1.48;;;0.60;;
40635;SDS011;26642;55.766;37.828;2023-06-10T06:59:48;2.45;;;0.70;;
40635;SDS011;26642;55.766;37.828;2023-06-10T07:02:14;1.65;;;0.50;;
40635;SDS011;26642;55.766;37.828;2023-06-10T07:04:40;2.95;;;0.82;;
40635;SDS011;26642;55.766;37.828;2023-06-10T07:07:07;0.70;;;0.57;;
40635;SDS011;26642;55.766;37.828;2023-06-10T07:09:34;4.50;;;0.60;;
40635;SDS011;26642;55.766;37.828;2023-06-10T07:12:00;1.10;;;0.60;;
40635;SDS011;26642;55.766;37.828;2023-06-10T07:14:26;1.10;;;0.63;;
40635;SDS011;26642;55.766;37.828;2023-06-10T07:16:52;0.77;;;0.60;;
40635;SDS011;26642;55.766;37.828;2023-06-10T07:19:18;0.80;;;0.35;;
40635;SDS011;26642;55.766;37.828;2023-06-10T07:21:43;1.30;;;0.40;;
40635;SDS011;26642;55.766;37.828;2023-06-10T07:24:09;0.80;;;0.45;;
40635;SDS011;26642;55.766;37.828;2023-06-10T07:26:35;2.70;;;0.60;;
40635;SDS011;26642;55.766;37.828;2023-06-10T07:29:01;0.93;;;0.47;;
40635;SDS011;26642;55.766;37.828;2023-06-10T07:31:27;2.45;;;0.47;;
40635;SDS011;26642;55.766;37.828;2023-06-10T07:33:54;1.38;;;0.45;;
40635;SDS011;26642;55.766;37.828;2023-06-10T07:36:20;0.52;;;0.32;;
40635;SDS011;26642;55.766;37.828;2023-06-10T07:38:46;1.17;;;0.60;;
40635;SDS011;26642;55.766;37.828;2023-06-10T07:41:11;1.00;;;0.50;;
40635;SDS011;26642;55.766;37.828;2023-06-10T07:43:37;1.50;;;0.60;;
40635;SDS011;26642;55.766;37.828;2023-06-10T07:46:03;0.57;;;0.40;;
40635;SDS011;26642;55.766;37.828;2023-06-10T07:48:30;0.60;;;0.52;;
40635;SDS011;26642;55.766;37.828;2023-06-10T07:50:56;0.73;;;0.40;;
40635;SDS011;26642;55.766;37.828;2023-06-10T07:53:22;0.45;;;0.32;;
40635;SDS011;26642;55.766;37.828;2023-06-10T07:55:48;0.40;;;0.40;;
40635;SDS011;26642;55.766;37.828;2023-06-10T07:58:14;1.45;;;0.40;;
40635;SDS011;26642;55.766;37.828;2023-06-10T08:00:40;1.45;;;0.50;;
40635;SDS011;26642;55.766;37.828;2023-06-10T08:03:07;1.50;;;0.70;;
40635;SDS011;26642;55.766;37.828;2023-06-10T08:05:33;1.13;;;0.70;;
40635;SDS011;26642;55.766;37.828;2023-06-10T08:07:58;1.55;;;0.50;;
40635;SDS011;26642;55.766;37.828;2023-06-10T08:10:24;0.52;;;0.47;;
40635;SDS011;26642;55.766;37.828;2023-06-10T08:12:50;1.42;;;0.47;;
40635;SDS011;26642;55.766;37.828;2023-06-10T08:15:16;0.35;;;0.35;;
40635;SDS011;26642;55.766;37.828;2023-06-10T08:17:42;2.05;;;0.52;;
40635;SDS011;26642;55.766;37.828;2023-06-10T08:20:09;1.25;;;0.60;;
40635;SDS011;26642;55.766;37.828;2023-06-10T08:22:35;3.83;;;0.60;;
40635;SDS011;26642;55.766;37.828;2023-06-10T08:25:01;0.57;;;0.50;;
40635;SDS011;26642;55.766;37.828;2023-06-10T08:27:27;0.60;;;0.47;;
40635;SDS011;26642;55.766;37.828;2023-06-10T08:29:53;0.40;;;0.40;;
40635;SDS011;26642;55.766;37.828;2023-06-10T08:32:19;2.08;;;0.60;;
40635;SDS011;26642;55.766;37.828;2023-06-10T08:34:45;0.60;;;0.50;;
40635;SDS011;26642;55.766;37.828;2023-06-10T08:37:11;0.40;;;0.40;;
40635;SDS011;26642;55.766;37.828;2023-06-10T08:39:37;0.45;;;0.45;;
40635;SDS011;26642;55.766;37.828;2023-06-10T08:44:44;1.67;;;0.90;;
40635;SDS011;26642;55.766;37.828;2023-06-10T08:47:16;1.17;;;0.70;;
40635;SDS011;26642;55.766;37.828;2023-06-10T08:49:43;1.30;;;0.70;;
40635;SDS011;26642;55.766;37.828;2023-06-10T08:52:14;0.65;;;0.40;;
40635;SDS011;26642;55.766;37.828;2023-06-10T08:54:59;0.75;;;0.50;;
40635;SDS011;26642;55.766;37.828;2023-06-10T08:57:27;0.95;;;0.50;;
40635;SDS011;26642;55.766;37.828;2023-06-10T08:59:56;0.50;;;0.43;;
40635;SDS011;26642;55.766;37.828;2023-06-10T09:02:23;0.50;;;0.45;;
40635;SDS011;26642;55.766;37.828;2023-06-10T09:04:50;1.13;;;0.30;;
40635;SDS011;26642;55.766;37.828;2023-06-10T09:07:17;1.30;;;0.30;;
40635;SDS011;26642;55.766;37.828;2023-06-10T09:09:44;0.30;;;0.30;;
40635;SDS011;26642;55.766;37.828;2023-06-10T09:12:10;0.93;;;0.50;;
40635;SDS011;26642;55.766;37.828;2023-06-10T09:14:38;0.80;;;0.50;;
40635;SDS011;26642;55.766;37.828;2023-06-10T09:17:05;1.23;;;0.70;;
40635;SDS011;26642;55.766;37.828;2023-06-10T09:19:32;1.30;;;0.40;;
40635;SDS011;26642;55.766;37.828;2023-06-10T09:21:58;1.05;;;0.50;;
40635;SDS011;26642;55.766;37.828;2023-06-10T09:24:25;0.30;;;0.30;;
40635;SDS011;26642;55.766;37.828;2023-06-10T09:27:05;0.60;;;0.40;;
40635;SDS011;26642;55.766;37.828;2023-06-10T09:29:51;0.50;;;0.43;;
40635;SDS011;26642;55.766;37.828;2023-06-10T09:32:19;1.63;;;0.40;;
40635;SDS011;26642;55.766;37.828;2023-06-10T09:34:46;0.57;;;0.22;;
40635;SDS011;26642;55.766;37.828;2023-06-10T09:37:12;0.30;;;0.30;;
40635;SDS011;26642;55.766;37.828;2023-06-10T09:39:45;1.30;;;0.40;;
40635;SDS011;26642;55.766;37.828;2023-06-10T09:42:33;0.98;;;0.47;;
40635;SDS011;26642;55.766;37.828;2023-06-10T09:45:01;2.10;;;0.70;;
40635;SDS011;26642;55.766;37.828;2023-06-10T09:47:28;0.45;;;0.35;;
40635;SDS011;26642;55.766;37.828;2023-06-10T09:49:54;0.77;;;0.30;;
40635;SDS011;26642;55.766;37.828;2023-06-10T09:52:23;1.05;;;0.47;;
40635;SDS011;26642;55.766;37.828;2023-06-10T09:54:58;4.97;;;0.52;;
40635;SDS011;26642;55.766;37.828;2023-06-10T09:57:26;0.88;;;0.40;;
40635;SDS011;26642;55.766;37.828;2023-06-10T09:59:57;1.95;;;0.60;;
40635;SDS011;26642;55.766;37.828;2023-06-10T10:02:23;1.70;;;0.50;;
40635;SDS011;26642;55.766;37.828;2023-06-10T10:04:49;1.90;;;0.50;;
40635;SDS011;26642;55.766;37.828;2023-06-10T10:07:15;1.95;;;0.63;;
40635;SDS011;26642;55.766;37.828;2023-06-10T10:09:42;1.20;;;0.50;;
40635;SDS011;26642;55.766;37.828;2023-06-10T10:12:12;2.28;;;0.45;;
40635;SDS011;26642;55.766;37.828;2023-06-10T10:14:41;1.58;;;0.60;;
40635;SDS011;26642;55.766;37.828;2023-06-10T10:17:11;0.80;;;0.70;;
40635;SDS011;26642;55.766;37.828;2023-06-10T10:19:41;0.38;;;0.38;;
40635;SDS011;26642;55.766;37.828;2023-06-10T10:22:15;0.60;;;0.50;;
40635;SDS011;26642;55.766;37.828;2023-06-10T10:24:51;1.27;;;0.60;;
40635;SDS011;26642;55.766;37.828;2023-06-10T10:27:21;0.50;;;0.50;;
40635;SDS011;26642;55.766;37.828;2023-06-10T10:30:14;3.35;;;0.43;;
40635;SDS011;26642;55.766;37.828;2023-06-10T10:32:58;1.27;;;0.60;;
40635;SDS011;26642;55.766;37.828;2023-06-10T10:35:30;0.60;;;0.50;;
40635;SDS011;26642;55.766;37.828;2023-06-10T10:37:58;1.27;;;0.55;;
40635;SDS011;26642;55.766;37.828;2023-06-10T10:40:25;1.23;;;0.40;;
40635;SDS011;26642;55.766;37.828;2023-06-10T10:42:55;1.10;;;0.43;;
40635;SDS011;26642;55.766;37.828;2023-06-10T10:45:23;2.05;;;0.50;;
40635;SDS011;26642;55.766;37.828;2023-06-10T10:47:52;0.70;;;0.32;;
40635;SDS011;26642;55.766;37.828;2023-06-10T10:50:20;0.80;;;0.40;;
40635;SDS011;26642;55.766;37.828;2023-06-10T10:55:24;0.90;;;0.40;;
40635;SDS011;26642;55.766;37.828;2023-06-10T10:57:55;0.40;;;0.30;;
40635;SDS011;26642;55.766;37.828;2023-06-10T11:03:15;0.70;;;0.68;;
40635;SDS011;26642;55.766;37.828;2023-06-10T11:05:45;2.33;;;0.93;;
40635;SDS011;26642;55.766;37.828;2023-06-10T11:08:15;1.30;;;0.60;;
40635;SDS011;26642;55.766;37.828;2023-06-10T11:11:25;1.48;;;0.65;;
40635;SDS011;26642;55.766;37.828;2023-06-10T11:16:29;0.75;;;0.70;;
40635;SDS011;26642;55.766;37.828;2023-06-10T11:19:03;0.90;;;0.60;;
40635;SDS011;26642;55.766;37.828;2023-06-10T11:21:29;1.10;;;0.60;;
40635;SDS011;26642;55.766;37.828;2023-06-10T11:23:57;0.75;;;0.52;;
40635;SDS011;26642;55.766;37.828;2023-06-10T11:31:26;2.05;;;0.60;;
40635;SDS011;26642;55.766;37.828;2023-06-10T11:34:00;2.05;;;0.95;;
40635;SDS011;26642;55.766;37.828;2023-06-10T11:36:32;1.23;;;0.68;;
40635;SDS011;26642;55.766;37.828;2023-06-10T11:39:01;1.67;;;0.60;;
40635;SDS011;26642;55.766;37.828;2023-06-10T11:41:31;1.52;;;0.60;;
40635;SDS011;26642;55.766;37.828;2023-06-10T11:46:40;0.70;;;0.50;;
40635;SDS011;26642;55.766;37.828;2023-06-10T11:49:11;1.85;;;0.50;;
40635;SDS011;26642;55.766;37.828;2023-06-10T11:51:38;0.50;;;0.50;;
40635;SDS011;26642;55.766;37.828;2023-06-10T11:54:06;1.08;;;0.60;;
40635;SDS011;26642;55.766;37.828;2023-06-10T11:56:34;0.43;;;0.43;;
40635;SDS011;26642;55.766;37.828;2023-06-10T11:59:01;0.88;;;0.70;;
40635;SDS011;26642;55.766;37.828;2023-06-10T12:01:31;1.35;;;0.70;;
40635;SDS011;26642;55.766;37.828;2023-06-10T12:04:12;2.22;;;0.70;;
40635;SDS011;26642;55.766;37.828;2023-06-10T12:06:44;1.35;;;0.82;;
40635;SDS011;26642;55.766;37.828;2023-06-10T12:09:15;1.42;;;0.50;;
40635;SDS011;26642;55.766;37.828;2023-06-10T12:11:55;2.42;;;0.60;;
40635;SDS011;26642;55.766;37.828;2023-06-10T12:19:55;1.10;;;0.60;;
40635;SDS011;26642;55.766;37.828;2023-06-10T12:22:21;1.25;;;0.50;;
40635;SDS011;26642;55.766;37.828;2023-06-10T12:25:06;2.55;;;0.50;;
40635;SDS011;26642;55.766;37.828;2023-06-10T12:27:33;1.83;;;0.60;;
40635;SDS011;26642;55.766;37.828;2023-06-10T12:30:02;1.17;;;0.50;;
40635;SDS011;26642;55.766;37.828;2023-06-10T12:32:40;0.93;;;0.60;;
40635;SDS011;26642;55.766;37.828;2023-06-10T12:35:11;0.90;;;0.60;;
40635;SDS011;26642;55.766;37.828;2023-06-10T12:37:41;1.05;;;0.52;;
40635;SDS011;26642;55.766;37.828;2023-06-10T12:40:07;2.50;;;0.80;;
40635;SDS011;26642;55.766;37.828;2023-06-10T12:42:36;0.80;;;0.65;;
40635;SDS011;26642;55.766;37.828;2023-06-10T12:45:03;1.15;;;0.70;;
40635;SDS011;26642;55.766;37.828;2023-06-10T12:47:31;2.50;;;0.70;;
40635;SDS011;26642;55.766;37.828;2023-06-10T12:50:03;1.63;;;0.50;;
40635;SDS011;26642;55.766;37.828;2023-06-10T12:52:30;1.10;;;0.60;;
40635;SDS011;26642;55.766;37.828;2023-06-10T12:54:57;0.73;;;0.55;;
40635;SDS011;26642;55.766;37.828;2023-06-10T12:57:24;1.70;;;0.73;;
40635;SDS011;26642;55.766;37.828;2023-06-10T12:59:50;0.73;;;0.60;;
40635;SDS011;26642;55.766;37.828;2023-06-10T13:02:18;0.73;;;0.65;;
40635;SDS011;26642;55.766;37.828;2023-06-10T13:04:49;2.05;;;0.50;;
40635;SDS011;26642;55.766;37.828;2023-06-10T13:07:15;0.93;;;0.43;;
40635;SDS011;26642;55.766;37.828;2023-06-10T13:09:42;1.90;;;0.90;;
40635;SDS011;26642;55.766;37.828;2023-06-10T13:12:08;4.00;;;0.90;;
40635;SDS011;26642;55.766;37.828;2023-06-10T13:14:35;3.55;;;0.82;;
40635;SDS011;26642;55.766;37.828;2023-06-10T13:17:03;1.35;;;0.60;;
40635;SDS011;26642;55.766;37.828;2023-06-10T13:19:32;1.00;;;0.70;;
40635;SDS011;26642;55.766;37.828;2023-06-10T13:21:58;2.10;;;0.77;;
40635;SDS011;26642;55.766;37.828;2023-06-10T13:24:24;0.88;;;0.68;;
40635;SDS011;26642;55.766;37.828;2023-06-10T13:26:52;3.17;;;0.77;;
40635;SDS011;26642;55.766;37.828;2023-06-10T13:29:20;1.77;;;0.80;;
40635;SDS011;26642;55.766;37.828;2023-06-10T13:31:46;1.90;;;0.80;;
40635;SDS011;26642;55.766;37.828;2023-06-10T13:34:11;2.38;;;0.70;;
40635;SDS011;26642;55.766;37.828;2023-06-10T13:36:37;0.70;;;0.70;;
40635;SDS011;26642;55.766;37.828;2023-06-10T13:39:03;1.67;;;0.88;;
40635;SDS011;26642;55.766;37.828;2023-06-10T13:41:29;1.30;;;0.80;;
40635;SDS011;26642;55.766;37.828;2023-06-10T13:43:55;2.05;;;0.80;;
40635;SDS011;26642;55.766;37.828;2023-06-10T13:46:21;2.58;;;0.82;;
40635;SDS011;26642;55.766;37.828;2023-06-10T13:48:47;0.70;;;0.70;;
40635;SDS011;26642;55.766;37.828;2023-06-10T13:51:13;1.73;;;0.63;;
40635;SDS011;26642;55.766;37.828;2023-06-10T13:53:40;1.25;;;0.77;;
40635;SDS011;26642;55.766;37.828;2023-06-10T13:56:06;3.45;;;1.23;;
40635;SDS011;26642;55.766;37.828;2023-06-10T13:58:32;1.50;;;0.80;;
40635;SDS011;26642;55.766;37.828;2023-06-10T14:01:04;1.27;;;0.70;;
40635;SDS011;26642;55.766;37.828;2023-06-10T14:03:30;1.75;;;0.98;;
40635;SDS011;26642;55.766;37.828;2023-06-10T14:05:56;1.90;;;0.90;;
40635;SDS011;26642;55.766;37.828;2023-06-10T14:08:22;1.30;;;0.70;;
40635;SDS011;26642;55.766;37.828;2023-06-10T14:10:48;1.83;;;0.88;;
40635;SDS011;26642;55.766;37.828;2023-06-10T14:13:16;2.13;;;0.90;;
40635;SDS011;26642;55.766;37.828;2023-06-10T14:15:42;1.83;;;0.68;;
40635;SDS011;26642;55.766;37.828;2023-06-10T14:18:08;0.98;;;0.70;;
40635;SDS011;26642;55.766;37.828;2023-06-10T14:20:34;0.93;;;0.70;;
40635;SDS011;26642;55.766;37.828;2023-06-10T14:23:00;0.98;;;0.80;;
40635;SDS011;26642;55.766;37.828;2023-06-10T14:25:26;1.48;;;0.60;;
40635;SDS011;26642;55.766;37.828;2023-06-10T14:27:52;2.78;;;0.77;;
40635;SDS011;26642;55.766;37.828;2023-06-10T14:30:18;1.98;;;0.73;;
40635;SDS011;26642;55.766;37.828;2023-06-10T14:32:44;1.23;;;0.80;;
40635;SDS011;26642;55.766;37.828;2023-06-10T14:35:10;1.23;;;0.70;;
40635;SDS011;26642;55.766;37.828;2023-06-10T14:37:36;1.40;;;0.50;;
40635;SDS011;26642;55.766;37.828;2023-06-10T14:40:03;1.70;;;0.70;;
40635;SDS011;26642;55.766;37.828;2023-06-10T14:42:30;0.65;;;0.65;;
40635;SDS011;26642;55.766;37.828;2023-06-10T14:44:57;0.70;;;0.70;;
40635;SDS011;26642;55.766;37.828;2023-06-10T14:47:23;1.13;;;0.73;;
40635;SDS011;26642;55.766;37.828;2023-06-10T14:49:50;1.35;;;0.70;;
40635;SDS011;26642;55.766;37.828;2023-06-10T14:52:16;1.05;;;0.65;;
40635;SDS011;26642;55.766;37.828;2023-06-10T14:54:42;0.95;;;0.63;;
40635;SDS011;26642;55.766;37.828;2023-06-10T14:57:08;2.00;;;0.80;;
40635;SDS011;26642;55.766;37.828;2023-06-10T14:59:34;4.25;;;0.85;;
40635;SDS011;26642;55.766;37.828;2023-06-10T15:02:00;1.27;;;0.80;;
40635;SDS011;26642;55.766;37.828;2023-06-10T15:04:26;1.63;;;0.65;;
40635;SDS011;26642;55.766;37.828;2023-06-10T15:06:53;1.92;;;1.08;;